createdAt,value
2023-02-18T00:01:39.558Z,100.72
2023-02-18T00:04:06.928Z,97.30
2023-02-18T00:06:36.232Z,92.72
2023-02-18T00:09:05.074Z,96.72
2023-02-18T00:11:35.077Z,109.50
2023-02-18T00:14:04.710Z,106.57
2023-02-18T00:16:33.346Z,101.40
2023-02-18T00:19:03.354Z,99.88
2023-02-18T00:21:32.173Z,95.13
2023-02-18T00:23:59.969Z,98.85
2023-02-18T00:26:27.632Z,97.78
2023-02-18T00:28:55.091Z,96.13
2023-02-18T00:31:29.811Z,94.40
2023-02-18T00:34:00.528Z,94.70
2023-02-18T00:36:29.466Z,97.78
2023-02-18T00:39:00.296Z,100.95
2023-02-18T00:41:29.298Z,97.97
2023-02-18T00:43:57.820Z,99.18
2023-02-18T00:46:26.497Z,97.80
2023-02-18T00:48:54.949Z,98.38
2023-02-18T00:51:23.762Z,98.15
2023-02-18T00:53:51.543Z,97.57
2023-02-18T00:56:19.633Z,102.07
2023-02-18T00:58:47.436Z,101.75
2023-02-18T01:01:14.933Z,96.97
2023-02-18T01:03:43.585Z,92.82
2023-02-18T01:06:12.402Z,94.10
2023-02-18T01:08:41.527Z,93.70
2023-02-18T01:11:11.520Z,92.00
2023-02-18T01:13:39.587Z,91.65
2023-02-18T01:16:08.595Z,90.85
2023-02-18T01:18:37.046Z,89.18
2023-02-18T01:21:08.524Z,90.32
2023-02-18T01:23:42.535Z,96.25
2023-02-18T01:26:11.020Z,90.80
2023-02-18T01:28:40.791Z,93.03
2023-02-18T01:31:10.920Z,94.93
2023-02-18T01:33:38.986Z,94.03
2023-02-18T01:36:07.451Z,94.00
2023-02-18T01:38:35.728Z,90.63
2023-02-18T01:41:03.807Z,91.43
2023-02-18T01:43:31.527Z,88.90
2023-02-18T01:46:06.114Z,94.53
2023-02-18T01:48:38.049Z,99.28
2023-02-18T01:51:32.264Z,97.60
2023-02-18T01:54:06.627Z,100.28
2023-02-18T01:56:40.919Z,102.97
2023-02-18T01:59:13.346Z,105.00
2023-02-18T02:01:43.753Z,97.30
2023-02-18T02:04:12.000Z,99.88
2023-02-18T02:06:41.669Z,93.30
2023-02-18T02:09:13.126Z,93.22
2023-02-18T02:11:46.755Z,91.25
2023-02-18T02:14:37.852Z,89.72
2023-02-18T02:17:17.408Z,86.45
2023-02-18T02:20:16.422Z,85.97
2023-02-18T02:23:07.492Z,83.13
2023-02-18T02:25:46.782Z,85.22
2023-02-18T02:29:01.514Z,87.35
2023-02-18T02:31:41.320Z,86.70
2023-02-18T02:34:27.281Z,88.65
2023-02-18T02:36:54.643Z,90.60
2023-02-18T02:39:34.135Z,100.38
2023-02-18T02:42:21.108Z,97.13
2023-02-18T02:44:54.869Z,99.95
2023-02-18T02:47:58.415Z,95.72
2023-02-18T02:50:45.812Z,97.38
2023-02-18T02:53:24.550Z,92.65
2023-02-18T02:55:52.304Z,95.68
2023-02-18T02:58:21.208Z,99.05
2023-02-18T03:01:03.622Z,97.57
2023-02-18T03:03:45.814Z,95.20
2023-02-18T03:06:43.939Z,96.47
2023-02-18T03:09:25.151Z,91.97
2023-02-18T03:12:30.530Z,88.30
2023-02-18T03:15:05.471Z,95.13
2023-02-18T03:17:40.005Z,92.85
2023-02-18T03:20:13.486Z,92.40
2023-02-18T03:22:46.704Z,88.47
2023-02-18T03:25:15.886Z,94.32
2023-02-18T03:27:52.473Z,91.57
2023-02-18T03:30:31.457Z,89.45
2023-02-18T03:33:04.017Z,83.70
2023-02-18T03:35:32.111Z,82.97
2023-02-18T03:38:20.998Z,75.60
2023-02-18T03:40:48.896Z,77.80
2023-02-18T03:43:16.622Z,80.93
2023-02-18T03:45:57.121Z,82.05
2023-02-18T03:48:25.212Z,81.88
2023-02-18T03:50:53.092Z,82.65
2023-02-18T03:53:20.697Z,84.50
2023-02-18T03:55:48.163Z,86.30
2023-02-18T03:58:15.734Z,83.32
2023-02-18T04:00:43.178Z,86.35
2023-02-18T04:03:10.698Z,89.88
2023-02-18T04:05:38.118Z,92.05
2023-02-18T04:08:05.746Z,89.40
2023-02-18T04:10:33.295Z,90.47
2023-02-18T04:13:00.800Z,89.82
2023-02-18T04:15:28.215Z,90.40
2023-02-18T04:17:55.829Z,82.53
2023-02-18T04:20:23.364Z,83.38
2023-02-18T04:22:50.745Z,84.45
2023-02-18T04:25:18.318Z,78.13
2023-02-18T04:27:45.726Z,84.85
2023-02-18T04:30:13.895Z,87.18
2023-02-18T04:32:41.364Z,86.95
2023-02-18T04:35:08.929Z,81.63
2023-02-18T04:37:36.341Z,83.55
2023-02-18T04:40:04.629Z,80.80
2023-02-18T04:42:32.104Z,82.25
2023-02-18T04:44:59.554Z,78.03
2023-02-18T04:47:27.549Z,76.65
2023-02-18T04:49:54.978Z,79.10
2023-02-18T04:52:22.410Z,77.53
2023-02-18T04:54:49.976Z,76.03
2023-02-18T04:57:17.387Z,72.00
2023-02-18T04:59:44.764Z,74.95
2023-02-18T05:02:12.162Z,70.63
2023-02-18T05:04:39.567Z,68.22
2023-02-18T05:07:07.008Z,70.15
2023-02-18T05:09:34.472Z,69.65
2023-02-18T05:12:01.880Z,68.97
2023-02-18T05:14:29.256Z,70.05
2023-02-18T05:16:56.664Z,71.78
2023-02-18T05:19:24.084Z,70.90
2023-02-18T05:21:51.464Z,69.70
2023-02-18T05:24:18.865Z,72.85
2023-02-18T05:26:46.243Z,73.00
2023-02-18T05:29:13.636Z,71.72
2023-02-18T05:31:41.160Z,69.10
2023-02-18T05:34:08.769Z,74.47
2023-02-18T05:36:36.198Z,72.22
2023-02-18T05:39:03.900Z,70.97
2023-02-18T05:41:31.414Z,71.60
2023-02-18T05:44:17.301Z,73.22
2023-02-18T05:46:44.804Z,72.22
2023-02-18T05:49:12.613Z,74.68
2023-02-18T05:51:39.997Z,70.97
2023-02-18T05:54:07.416Z,73.13
2023-02-18T05:56:34.879Z,79.35
2023-02-18T05:59:02.307Z,75.55
2023-02-18T06:01:29.834Z,74.30
2023-02-18T06:03:57.327Z,73.03
2023-02-18T06:06:24.761Z,73.90
2023-02-18T06:08:52.189Z,77.50
2023-02-18T06:11:19.596Z,75.45
2023-02-18T06:13:47.243Z,76.82
2023-02-18T06:16:14.849Z,74.47
2023-02-18T06:18:42.307Z,76.00
2023-02-18T06:21:09.692Z,74.35
2023-02-18T06:23:37.132Z,79.07
2023-02-18T06:26:04.782Z,76.93
2023-02-18T06:28:32.197Z,73.72
2023-02-18T06:30:59.595Z,79.88
2023-02-18T06:33:27.081Z,79.25
2023-02-18T06:36:00.003Z,76.93
2023-02-18T06:38:27.882Z,79.45
2023-02-18T06:40:55.341Z,78.68
2023-02-18T06:43:22.734Z,80.00
2023-02-18T06:45:50.251Z,78.95
2023-02-18T06:48:17.688Z,79.70
2023-02-18T06:50:45.459Z,83.60
2023-02-18T06:53:13.227Z,81.57
2023-02-18T06:55:41.808Z,79.20
2023-02-18T06:58:10.603Z,81.30
2023-02-18T07:00:38.336Z,81.88
2023-02-18T07:03:06.296Z,83.30
2023-02-18T07:05:33.721Z,84.90
2023-02-18T07:08:01.479Z,85.50
2023-02-18T07:10:29.051Z,85.78
2023-02-18T07:12:56.501Z,87.13
2023-02-18T07:15:24.491Z,83.82
2023-02-18T07:17:52.242Z,84.28
2023-02-18T07:20:21.202Z,84.15
2023-02-18T07:22:48.896Z,81.18
2023-02-18T07:25:16.516Z,86.05
2023-02-18T07:27:43.963Z,83.10
2023-02-18T07:30:11.830Z,81.57
2023-02-18T07:32:40.291Z,76.90
2023-02-18T07:35:07.884Z,80.38
2023-02-18T07:37:35.332Z,84.30
2023-02-18T07:40:03.264Z,77.15
2023-02-18T07:42:30.703Z,81.50
2023-02-18T07:44:58.208Z,80.25
2023-02-18T07:47:25.662Z,82.97
2023-02-18T07:49:53.015Z,82.55
2023-02-18T07:52:20.398Z,78.70
2023-02-18T07:54:47.890Z,78.25
2023-02-18T07:57:15.516Z,79.63
2023-02-18T07:59:43.023Z,77.13
2023-02-18T08:02:20.322Z,79.50
2023-02-18T08:04:48.499Z,75.50
2023-02-18T08:07:18.497Z,76.65
2023-02-18T08:09:45.981Z,76.60
2023-02-18T08:12:13.543Z,79.22
2023-02-18T08:14:41.924Z,76.95
2023-02-18T08:17:09.387Z,76.97
2023-02-18T08:19:36.841Z,80.50
2023-02-18T08:22:04.502Z,77.85
2023-02-18T08:24:31.912Z,81.68
2023-02-18T08:27:01.416Z,78.22
2023-02-18T08:29:29.872Z,81.65
2023-02-18T08:31:58.163Z,78.57
2023-02-18T08:34:26.353Z,79.57
2023-02-18T08:36:53.880Z,80.53
2023-02-18T08:39:21.325Z,77.53
2023-02-18T08:41:48.694Z,80.47
2023-02-18T08:44:16.099Z,80.20
2023-02-18T08:46:43.556Z,78.80
2023-02-18T08:49:11.028Z,77.85
2023-02-18T08:51:38.435Z,77.07
2023-02-18T08:54:06.385Z,77.35
2023-02-18T08:56:33.717Z,80.03
2023-02-18T08:59:01.097Z,80.93
2023-02-18T09:01:28.606Z,78.03
2023-02-18T09:03:56.150Z,79.47
2023-02-18T09:06:23.726Z,79.68
2023-02-18T09:08:51.450Z,80.03
2023-02-18T09:11:19.905Z,77.20
2023-02-18T09:13:47.466Z,77.20
2023-02-18T09:16:19.147Z,79.00
2023-02-18T09:18:48.267Z,78.55
2023-02-18T09:21:19.053Z,77.95
2023-02-18T09:23:46.925Z,76.70
2023-02-18T09:26:17.322Z,81.32
2023-02-18T09:28:45.045Z,81.57
2023-02-18T09:31:18.251Z,79.00
2023-02-18T09:33:48.856Z,81.38
2023-02-18T09:36:17.373Z,81.50
2023-02-18T09:38:44.928Z,81.55
2023-02-18T09:42:03.452Z,81.47
2023-02-18T09:44:36.629Z,83.03
2023-02-18T09:47:26.057Z,83.43
2023-02-18T09:49:57.741Z,83.13
2023-02-18T09:52:29.954Z,81.75
2023-02-18T09:57:45.455Z,84.32
2023-02-18T10:00:30.554Z,85.15
2023-02-18T10:03:16.670Z,85.28
2023-02-18T10:06:17.776Z,84.47
2023-02-18T10:08:48.115Z,85.60
2023-02-18T10:11:35.420Z,84.55
2023-02-18T10:14:04.204Z,87.25
2023-02-18T10:16:31.732Z,84.82
2023-02-18T10:19:03.970Z,88.07
2023-02-18T10:24:21.162Z,86.10
2023-02-18T10:26:49.376Z,84.38
2023-02-18T10:29:21.701Z,87.22
2023-02-18T10:32:27.553Z,86.22
2023-02-18T10:35:07.498Z,87.60
2023-02-18T10:37:52.694Z,86.60
2023-02-18T10:40:28.858Z,84.90
2023-02-18T10:43:20.311Z,82.57
2023-02-18T10:45:51.252Z,83.50
2023-02-18T10:48:46.497Z,85.45
2023-02-18T10:51:35.543Z,85.30
2023-02-18T10:54:03.025Z,83.80
2023-02-18T10:56:48.384Z,86.32
2023-02-18T10:59:27.678Z,88.88
2023-02-18T11:01:58.561Z,87.30
2023-02-18T11:04:35.679Z,84.00
2023-02-18T11:07:06.386Z,83.20
2023-02-18T11:09:51.005Z,85.63
2023-02-18T11:12:33.228Z,82.15
2023-02-18T11:15:17.908Z,82.55
2023-02-18T11:17:52.057Z,90.38
2023-02-18T11:20:25.064Z,84.65
2023-02-18T11:22:56.829Z,84.85
2023-02-18T11:25:33.538Z,85.18
2023-02-18T11:28:07.349Z,84.25
2023-02-18T11:30:40.517Z,81.57
2023-02-18T11:33:18.704Z,83.13
2023-02-18T11:35:54.778Z,85.43
2023-02-18T11:38:44.405Z,81.15
2023-02-18T11:41:19.786Z,80.50
2023-02-18T11:43:52.175Z,84.03
2023-02-18T11:46:25.584Z,79.05
2023-02-18T11:48:53.973Z,82.47
2023-02-18T11:51:33.264Z,81.32
2023-02-18T11:54:03.797Z,80.93
2023-02-18T11:56:36.185Z,83.28
2023-02-18T11:59:04.948Z,82.45
2023-02-18T12:01:47.605Z,86.63
2023-02-18T12:04:18.874Z,80.93
2023-02-18T12:07:23.831Z,80.65
2023-02-18T12:09:56.357Z,79.78
2023-02-18T12:12:28.495Z,80.60
2023-02-18T12:14:56.650Z,81.30
2023-02-18T12:17:42.403Z,82.32
2023-02-18T12:20:36.906Z,83.05
2023-02-18T12:23:31.565Z,82.25
2023-02-18T12:26:14.296Z,79.38
2023-02-18T12:28:47.407Z,79.88
2023-02-18T12:31:40.186Z,82.15
2023-02-18T12:34:33.579Z,82.40
2023-02-18T12:37:28.997Z,80.35
2023-02-18T12:40:14.289Z,82.40
2023-02-18T12:43:09.313Z,83.72
2023-02-18T12:45:39.569Z,80.38
2023-02-18T12:48:22.024Z,77.82
2023-02-18T12:53:43.365Z,76.80
2023-02-18T12:56:16.672Z,73.53
2023-02-18T12:58:46.851Z,79.35
2023-02-18T13:01:35.736Z,77.22
2023-02-18T13:04:15.134Z,74.78
2023-02-18T13:07:10.926Z,72.55
2023-02-18T13:09:53.476Z,73.72
2023-02-18T13:12:54.687Z,75.10
2023-02-18T13:15:25.841Z,73.95
2023-02-18T13:17:58.617Z,72.72
2023-02-18T13:20:50.817Z,73.47
2023-02-18T13:23:31.334Z,74.05
2023-02-18T13:26:02.330Z,70.57
2023-02-18T13:28:46.953Z,69.40
2023-02-18T13:31:28.023Z,68.05
2023-02-18T13:33:58.544Z,69.57
2023-02-18T13:36:54.831Z,67.13
2023-02-18T13:39:24.446Z,65.22
2023-02-18T13:42:12.899Z,68.90
2023-02-18T13:44:55.320Z,65.35
2023-02-18T13:47:41.842Z,68.35
2023-02-18T13:50:25.651Z,64.68
2023-02-18T13:53:08.359Z,63.88
2023-02-18T13:55:56.009Z,64.97
2023-02-18T13:58:39.022Z,63.10
2023-02-18T14:01:12.452Z,60.95
2023-02-18T14:03:42.893Z,62.53
2023-02-18T14:06:26.288Z,65.78
2023-02-18T14:09:24.457Z,63.33
2023-02-18T14:11:57.911Z,61.72
2023-02-18T14:14:28.232Z,66.72
2023-02-18T14:17:14.136Z,64.15
2023-02-18T14:19:41.648Z,65.88
2023-02-18T14:22:44.497Z,64.50
2023-02-18T14:27:40.544Z,62.22
2023-02-18T14:30:25.492Z,66.90
2023-02-18T14:32:57.346Z,66.40
2023-02-18T14:35:53.668Z,67.97
2023-02-18T14:38:40.953Z,64.93
2023-02-18T14:41:18.133Z,66.43
2023-02-18T14:43:48.414Z,70.10
2023-02-18T14:46:36.148Z,68.40
2023-02-18T14:49:13.645Z,68.35
2023-02-18T14:51:44.589Z,73.55
2023-02-18T14:54:19.370Z,74.35
2023-02-18T14:57:00.265Z,71.82
2023-02-18T14:59:31.497Z,72.15
2023-02-18T15:01:59.013Z,71.38
2023-02-18T15:04:27.404Z,72.05
2023-02-18T15:07:09.228Z,73.90
2023-02-18T15:09:46.748Z,73.32
2023-02-18T15:12:19.557Z,73.60
2023-02-18T15:14:49.811Z,71.63
2023-02-18T15:17:20.535Z,72.18
2023-02-18T15:19:55.456Z,72.65
2023-02-18T15:22:31.115Z,68.28
2023-02-18T15:24:58.605Z,72.03
2023-02-18T15:27:30.155Z,73.38
2023-02-18T15:30:30.794Z,73.30
2023-02-18T15:33:00.624Z,71.47
2023-02-18T15:35:32.966Z,72.65
2023-02-18T15:38:01.519Z,73.45
2023-02-18T15:40:34.976Z,74.78
2023-02-18T15:43:05.452Z,73.03
2023-02-18T15:45:38.951Z,73.00
2023-02-18T15:48:06.703Z,69.47
2023-02-18T15:50:37.854Z,73.88
2023-02-18T15:53:14.760Z,73.00
2023-02-18T15:55:46.032Z,71.20
2023-02-18T15:58:17.475Z,72.25
2023-02-18T16:00:52.220Z,72.47
2023-02-18T16:03:31.071Z,69.57
2023-02-18T16:06:22.286Z,69.13
2023-02-18T16:09:03.701Z,68.90
2023-02-18T16:11:35.863Z,71.95
2023-02-18T16:14:06.008Z,73.40
2023-02-18T16:16:39.503Z,73.22
2023-02-18T16:19:22.873Z,73.15
2023-02-18T16:21:50.280Z,72.32
2023-02-18T16:24:30.308Z,72.82
2023-02-18T16:26:59.403Z,75.90
2023-02-18T16:29:37.455Z,78.80
2023-02-18T16:32:05.139Z,75.03
2023-02-18T16:34:33.042Z,71.68
2023-02-18T16:37:19.184Z,73.60
2023-02-18T16:39:46.809Z,72.90
2023-02-18T16:42:14.397Z,75.78
2023-02-18T16:44:41.861Z,74.60
2023-02-18T16:47:15.331Z,74.78
2023-02-18T16:49:45.535Z,74.47
2023-02-18T16:52:17.162Z,76.90
2023-02-18T16:54:44.687Z,77.35
2023-02-18T16:57:12.115Z,85.25
2023-02-18T16:59:39.520Z,76.45
2023-02-18T17:02:22.332Z,74.53
2023-02-18T17:04:49.830Z,76.63
2023-02-18T17:07:17.448Z,79.05
2023-02-18T17:09:44.936Z,81.93
2023-02-18T17:12:13.411Z,82.78
2023-02-18T17:14:40.861Z,83.70
2023-02-18T17:17:18.031Z,82.07
2023-02-18T17:19:45.450Z,79.22
2023-02-18T17:22:13.878Z,86.15
2023-02-18T17:24:41.380Z,84.55
2023-02-18T17:27:11.048Z,77.90
2023-02-18T17:29:38.533Z,89.43
2023-02-18T17:32:08.124Z,87.88
2023-02-18T17:34:37.716Z,86.85
2023-02-18T17:37:05.219Z,86.93
2023-02-18T17:39:32.745Z,87.85
2023-02-18T17:42:00.180Z,85.95
2023-02-18T17:44:29.150Z,86.63
2023-02-18T17:46:56.679Z,86.40
2023-02-18T17:49:24.458Z,86.63
2023-02-18T17:51:52.657Z,87.63
2023-02-18T17:54:22.730Z,86.32
2023-02-18T17:56:50.292Z,87.28
2023-02-18T17:59:17.697Z,87.97
2023-02-18T18:01:45.220Z,88.13
2023-02-18T18:04:15.014Z,87.50
2023-02-18T18:06:43.584Z,86.47
2023-02-18T18:09:11.408Z,88.65
2023-02-18T18:11:38.987Z,84.60
2023-02-18T18:14:06.452Z,87.28
2023-02-18T18:16:33.998Z,86.00
2023-02-18T18:19:01.528Z,88.20
2023-02-18T18:21:34.588Z,85.05
2023-02-18T18:24:02.439Z,86.03
2023-02-18T18:26:30.346Z,90.15
2023-02-18T18:28:57.900Z,90.10
2023-02-18T18:31:25.497Z,89.55
2023-02-18T18:33:53.764Z,89.22
2023-02-18T18:36:24.247Z,87.97
2023-02-18T18:38:52.160Z,88.70
2023-02-18T18:41:22.688Z,91.90
2023-02-18T18:43:50.784Z,92.22
2023-02-18T18:46:18.613Z,91.47
2023-02-18T18:48:46.309Z,92.38
2023-02-18T18:51:18.208Z,91.18
2023-02-18T18:53:45.686Z,92.45
2023-02-18T18:56:13.850Z,89.80
2023-02-18T18:58:41.277Z,91.63
2023-02-18T19:01:16.138Z,90.32
2023-02-18T19:03:45.145Z,90.45
2023-02-18T19:06:14.485Z,89.40
2023-02-18T19:08:42.591Z,95.00
2023-02-18T19:11:12.958Z,93.03
2023-02-18T19:13:40.999Z,92.70
2023-02-18T19:16:16.639Z,87.35
2023-02-18T19:18:44.054Z,88.95
2023-02-18T19:21:12.442Z,90.80
2023-02-18T19:23:40.323Z,84.57
2023-02-18T19:26:08.161Z,82.35
2023-02-18T19:28:35.773Z,82.20
2023-02-18T19:31:09.719Z,84.82
2023-02-18T19:33:39.195Z,86.57
2023-02-18T19:36:11.162Z,91.07
2023-02-18T19:38:38.725Z,90.18
2023-02-18T19:41:12.343Z,89.60
2023-02-18T19:43:42.075Z,83.25
2023-02-18T19:46:11.714Z,92.15
2023-02-18T19:48:39.859Z,84.95
2023-02-18T19:51:08.754Z,94.65
2023-02-18T19:53:37.570Z,92.32
2023-02-18T19:56:07.416Z,91.85
2023-02-18T19:58:35.521Z,94.85
2023-02-18T20:01:03.792Z,83.93
2023-02-18T20:03:31.237Z,85.95
2023-02-18T20:05:58.729Z,78.35
2023-02-18T20:08:26.230Z,84.15
2023-02-18T20:10:58.047Z,84.88
2023-02-18T20:13:25.553Z,79.25
2023-02-18T20:15:52.985Z,84.43
2023-02-18T20:18:20.503Z,81.28
2023-02-18T20:20:51.371Z,81.35
2023-02-18T20:23:18.928Z,83.32
2023-02-18T20:25:47.718Z,78.78
2023-02-18T20:28:15.655Z,81.43
2023-02-18T20:30:44.221Z,84.65
2023-02-18T20:33:11.679Z,84.80
2023-02-18T20:35:39.019Z,85.82
2023-02-18T20:38:06.469Z,87.18
2023-02-18T20:40:33.943Z,85.55
2023-02-18T20:43:01.430Z,84.57
2023-02-18T20:45:28.984Z,86.05
2023-02-18T20:47:56.448Z,93.55
2023-02-18T20:50:24.144Z,90.22
2023-02-18T20:52:52.597Z,88.25
2023-02-18T20:55:20.106Z,89.18
2023-02-18T20:57:47.501Z,95.15
2023-02-18T21:00:15.440Z,92.72
2023-02-18T21:02:42.984Z,95.65
2023-02-18T21:05:10.455Z,88.75
2023-02-18T21:07:37.841Z,87.13
2023-02-18T21:10:06.599Z,93.22
2023-02-18T21:12:33.993Z,80.57
2023-02-18T21:15:01.458Z,84.47
2023-02-18T21:17:28.864Z,80.78
2023-02-18T21:19:56.264Z,85.00
2023-02-18T21:22:23.702Z,80.85
2023-02-18T21:24:51.692Z,82.43
2023-02-18T21:27:19.157Z,81.68
2023-02-18T21:29:46.588Z,82.07
2023-02-18T21:32:14.193Z,80.25
2023-02-18T21:34:41.659Z,82.75
2023-02-18T21:37:09.106Z,92.25
2023-02-18T21:39:36.568Z,87.80
2023-02-18T21:42:04.801Z,86.45
2023-02-18T21:44:41.882Z,82.95
2023-02-18T21:47:09.892Z,94.13
2023-02-18T21:49:37.271Z,88.07
2023-02-18T21:52:10.950Z,85.72
2023-02-18T21:54:40.925Z,89.18
2023-02-18T21:57:11.948Z,89.07
2023-02-18T21:59:40.337Z,86.00
2023-02-18T22:02:14.356Z,83.00
2023-02-18T22:04:41.849Z,83.43
2023-02-18T22:07:09.360Z,88.22
2023-02-18T22:09:37.073Z,90.85
2023-02-18T22:12:05.357Z,87.88
2023-02-18T22:14:33.036Z,89.90
2023-02-18T22:17:00.488Z,89.55
2023-02-18T22:19:27.987Z,92.18
2023-02-18T22:21:55.687Z,86.75
2023-02-18T22:24:23.105Z,88.60
2023-02-18T22:26:50.957Z,87.30
2023-02-18T22:29:19.793Z,85.70
2023-02-18T22:31:47.971Z,86.53
2023-02-18T22:34:16.477Z,85.93
2023-02-18T22:36:43.923Z,85.95
2023-02-18T22:39:13.141Z,90.05
2023-02-18T22:41:41.314Z,88.28
2023-02-18T22:44:15.323Z,88.45
2023-02-18T22:46:43.414Z,81.80
2023-02-18T22:49:12.133Z,85.20
2023-02-18T22:51:41.933Z,86.68
2023-02-18T22:54:16.969Z,86.97
2023-02-18T22:56:46.264Z,84.97
2023-02-18T22:59:15.507Z,89.15
2023-02-18T23:01:49.443Z,84.55
2023-02-18T23:04:19.158Z,85.47
2023-02-18T23:06:47.528Z,83.85
2023-02-18T23:09:17.635Z,92.07
2023-02-18T23:11:45.857Z,89.80
2023-02-18T23:14:19.340Z,90.78
2023-02-18T23:17:17.666Z,86.63
2023-02-18T23:19:51.052Z,87.15
2023-02-18T23:22:40.061Z,84.40
2023-02-18T23:25:08.004Z,87.35
2023-02-18T23:27:35.495Z,94.95
2023-02-18T23:30:03.162Z,89.95
2023-02-18T23:32:32.029Z,83.13
2023-02-18T23:34:59.407Z,92.13
2023-02-18T23:37:45.178Z,93.65
2023-02-18T23:40:14.738Z,87.30
2023-02-18T23:42:42.189Z,88.20
2023-02-18T23:45:09.776Z,85.75
2023-02-18T23:47:37.213Z,94.15
2023-02-18T23:50:04.867Z,92.47
2023-02-18T23:52:32.264Z,94.68
2023-02-18T23:54:59.654Z,95.78
2023-02-18T23:57:31.250Z,96.70
2023-02-18T23:59:58.740Z,95.28
